TimeEDT,TemperatureF,Dew PointF,Humidity,Sea Level PressureIn,VisibilityMPH,Wind Direction,Wind SpeedMPH,Gust SpeedMPH,PrecipitationIn,Events,Conditions,WindDirDegrees,DateUTC
12:53 AM,64.9,63.0,93,29.96,5.0,West,4.6,-,N/A,,Clear,260,2012-08-16 04:53:00
1:34 AM,64.4,62.6,94,29.97,1.8,WNW,3.5,-,N/A,,Clear,300,2012-08-16 05:34:00
1:47 AM,64.4,62.6,94,29.97,3.0,NNW,3.5,-,N/A,,Clear,330,2012-08-16 05:47:00
1:53 AM,64.4,62.6,94,29.97,5.0,Calm,Calm,-,N/A,,Clear,0,2012-08-16 05:53:00
2:16 AM,64.4,62.6,94,29.97,1.8,Calm,Calm,-,N/A,,Partly Cloudy,0,2012-08-16 06:16:00
2:37 AM,62.6,62.6,100,29.97,3.0,South,3.5,-,N/A,,Partly Cloudy,170,2012-08-16 06:37:00
2:53 AM,64.0,62.1,93,29.96,4.0,Calm,Calm,-,N/A,,Clear,0,2012-08-16 06:53:00
2:56 AM,64.4,62.6,94,29.97,2.5,Calm,Calm,-,N/A,,Partly Cloudy,0,2012-08-16 06:56:00
3:04 AM,64.4,62.6,94,29.97,1.5,West,3.5,-,N/A,,Clear,260,2012-08-16 07:04:00
3:07 AM,64.4,62.6,94,29.97,3.0,Calm,Calm,-,N/A,,Clear,0,2012-08-16 07:07:00
3:18 AM,62.6,62.6,100,29.97,2.5,Calm,Calm,-,N/A,,Clear,0,2012-08-16 07:18:00
3:29 AM,62.6,60.8,94,29.98,4.0,SSE,3.5,-,N/A,,Clear,150,2012-08-16 07:29:00
3:53 AM,63.0,61.0,93,29.96,5.0,Calm,Calm,-,N/A,,Clear,0,2012-08-16 07:53:00
3:59 AM,62.6,60.8,94,29.98,1.8,Calm,Calm,-,N/A,,Clear,0,2012-08-16 07:59:00
4:18 AM,62.6,60.8,94,29.98,3.0,Calm,Calm,-,N/A,,Clear,0,2012-08-16 08:18:00
4:53 AM,63.0,61.0,93,29.98,6.0,WSW,4.6,-,N/A,,Clear,250,2012-08-16 08:53:00
5:53 AM,64.0,61.0,90,29.99,7.0,Calm,Calm,-,N/A,,Clear,0,2012-08-16 09:53:00
6:53 AM,63.0,60.1,90,30.01,10.0,SSW,3.5,-,N/A,,Clear,200,2012-08-16 10:53:00
7:53 AM,64.9,61.0,87,30.02,10.0,Calm,Calm,-,N/A,,Clear,0,2012-08-16 11:53:00
8:53 AM,69.1,64.0,84,30.02,9.0,Variable,3.5,-,N/A,,Clear,0,2012-08-16 12:53:00
9:53 AM,75.0,66.9,76,30.02,10.0,Calm,Calm,-,N/A,,Clear,0,2012-08-16 13:53:00
10:53 AM,78.1,64.0,62,30.01,10.0,SW,3.5,-,N/A,,Clear,220,2012-08-16 14:53:00
11:53 AM,81.0,59.0,47,30.01,10.0,Variable,4.6,-,N/A,,Scattered Clouds,0,2012-08-16 15:53:00
12:53 PM,82.0,60.1,47,30.01,10.0,Calm,Calm,-,N/A,,Scattered Clouds,0,2012-08-16 16:53:00
1:53 PM,84.0,57.9,41,29.99,10.0,Variable,4.6,-,N/A,,Clear,0,2012-08-16 17:53:00
2:53 PM,84.9,59.0,41,29.99,10.0,Calm,Calm,-,N/A,,Scattered Clouds,0,2012-08-16 18:53:00
3:53 PM,84.0,59.0,43,29.97,10.0,Calm,Calm,-,N/A,,Scattered Clouds,0,2012-08-16 19:53:00
4:53 PM,84.0,60.1,44,29.95,10.0,SW,3.5,-,N/A,,Clear,220,2012-08-16 20:53:00
5:53 PM,84.9,60.1,43,29.93,10.0,Calm,Calm,-,N/A,,Clear,0,2012-08-16 21:53:00
6:53 PM,82.0,59.0,45,29.92,10.0,SW,3.5,-,N/A,,Clear,220,2012-08-16 22:53:00
7:53 PM,79.0,61.0,54,29.91,10.0,SSW,3.5,-,N/A,,Clear,200,2012-08-16 23:53:00
8:53 PM,77.0,61.0,58,29.91,10.0,Calm,Calm,-,N/A,,Clear,0,2012-08-17 00:53:00
9:53 PM,72.0,63.0,73,29.94,10.0,Calm,Calm,-,N/A,,Clear,0,2012-08-17 01:53:00
10:53 PM,71.1,64.9,81,29.95,10.0,West,4.6,-,N/A,,Clear,260,2012-08-17 02:53:00
11:53 PM,68.0,64.9,90,29.95,9.0,Calm,Calm,-,N/A,,Clear,0,2012-08-17 03:53:00